Aviation Digital Data Service (ADDS)

Output produced by METARs form (1710 UTC 24 August 2019)
found at http://www.aviationweather.gov/metar/data/
 
Forecast for: ZSJN (JINAN YAOQIANG , CN)
Text: TAF ZSJN 240905Z 2412/2512 05003MPS 3500 BR NSC TX28/06Z TN20/21Z
Forecast period: 1200 UTC 24 August 2019 to 1200 UTC 25 August 2019
Forecast type: FROM: standard forecast or significant change
Winds: from the NE (50 degrees) at 7 MPH (6 knots; 3.1 m/s)
Visibility: 2.17 miles (3.49 km)
Ceiling: unknown
Clouds: missing
Weather: BR  (mist)